Trieste

LIVT · Friuli Venezia Giulia, 意大利

罗盘
风向 的
风: 3 kt, 1 beaufort

添加一条跑道以查看侧风和逆风信息。

添置 跑道
0 ft 1.000 2.000 3.000 4.000 5.000
METAR LIVT 262355Z AUTO VRB03KT //// 12/05 Q1008

METAR Trieste - LIVT

Trieste是,意大利中的未知。 该机场位于纬度45,65000和经度13,75000。 本场的ICAO机场代码为LIVT。 机场在Milano FIR中。

该航空气象观测是针对Trieste在2024年2月27日 00:55, 当地时间进行的。

机场观察

可变方向的风很小或没有风。

温度和风寒是12 °C。 露点为5 °C,相对湿度为63%。 海平面上的气压为1008 hPa (QNH)。

白天

今天,太阳从06:47升起,在17:47降落。 这适用于Trieste,世界夏令时可能有所不同。 当地时间与世界标准时间之间的时差为+1 小时。 当前,没有夏令时有效。

公司介绍

我们没有关于这个机场的公司信息。

体会

到Vliegles.nl去找飞行课程,跳伞和其他飞行体验。 浏览页面,了解Trieste附近所有可用的活动。 你也可以使用搜索功能来寻找你所在地附近的特定飞行课程、跳伞或其他飞行体验。

温度 & 天气

温度 12 °C
露点 5 °C
相对湿度 63%
Kp-index 1 (0-9)

白天

日出
06:49 (5:17)
中午
12:17
日落
17:46

小工具

你想在你的网站上有一个关于Trieste的当前航空天气(METAR)的小部件吗?

显示HTML代码
?>